This is the latest recevied weather packets stored in our database for station/object OK2ILA-6. If no packets are shown the sender has not sent any weather packets the latest 10 day(s).
| Time | Temp. | Humidity | Pressure | Rain* | Wind** | Luminosity | Snow |
|---|---|---|---|---|---|---|---|
| 1777608603 | 7.78° C | 74% | 1026.8 hPa | - | - | - | - |
| 1777608003 | 7.22° C | 74% | 1026.8 hPa | - | - | - | - |
| 1777607403 | 7.22° C | 74% | 1026.8 hPa | - | - | - | - |
| 1777606802 | 6.67° C | 73% | 1026.8 hPa | - | - | - | - |
| 1777606203 | 7.22° C | 73% | 1026.6 hPa | - | - | - | - |
| 1777605603 | 7.22° C | 72% | 1026.8 hPa | - | - | - | - |
| 1777605003 | 7.22° C | 72% | 1026.9 hPa | - | - | - | - |
| 1777604402 | 7.22° C | 72% | 1026.9 hPa | - | - | - | - |
| 1777603802 | 7.22° C | 71% | 1027 hPa | - | - | - | - |
| 1777603203 | 7.22° C | 72% | 1026.8 hPa | - | - | - | - |
| 1777602603 | 7.22° C | 72% | 1027 hPa | - | - | - | - |
| 1777602003 | 7.22° C | 71% | 1027 hPa | - | - | - | - |
| 1777584603 | 5.56° C | 72% | 1027.8 hPa | - | - | - | - |
| 1777581603 | 6.67° C | 70% | 1027.4 hPa | - | - | - | - |
| 1777579203 | 7.22° C | 68% | 1027.4 hPa | - | - | - | - |
| 1777576803 | 8.89° C | 60% | 1027.2 hPa | - | - | - | - |
| 1777576203 | 10° C | 56% | 1027.1 hPa | - | - | - | - |
| 1777573806 | 11.11° C | 48% | 1027 hPa | - | - | - | - |
| 1777573203 | 11.11° C | 48% | 1026.9 hPa | - | - | - | - |
| 1777567803 | 13.89° C | 38% | 1026.6 hPa | - | - | - | - |
| 1777564803 | 15° C | 33% | 1026.5 hPa | - | - | - | - |
| 1777562403 | 15° C | 32% | 1026.9 hPa | - | - | - | - |
| 1777558803 | 14.44° C | 33% | 1027.2 hPa | - | - | - | - |
| 1777555803 | 14.44° C | 32% | 1027.6 hPa | - | - | - | - |
| 1777552803 | 13.33° C | 32% | 1028.4 hPa | - | - | - | - |
* Rain since midnight (hover to see other rain measurements)
** Current wind speed in m/s (hover to see current wind gust speed)